createdAt,value
2022-08-03T00:02:31.879Z,89.06
2022-08-03T00:07:34.766Z,87.41
2022-08-03T00:12:38.863Z,86.83
2022-08-03T00:17:53.280Z,90.59
2022-08-03T00:22:56.619Z,89.29
2022-08-03T00:28:00.803Z,92.05
2022-08-03T00:33:03.773Z,89.71
2022-08-03T00:38:06.809Z,87.98
2022-08-03T00:43:11.544Z,89.56
2022-08-03T00:48:19.767Z,93.25
2022-08-03T00:53:36.782Z,90.44
2022-08-03T00:58:40.936Z,89.89
2022-08-03T01:03:43.938Z,93.52
2022-08-03T01:08:53.451Z,97.59
2022-08-03T01:14:18.313Z,97.52
2022-08-03T01:19:37.515Z,97.56
2022-08-03T01:24:51.869Z,99.65
2022-08-03T01:30:05.460Z,100.00
2022-08-03T01:35:11.734Z,96.24
2022-08-03T01:40:16.884Z,96.12
2022-08-03T01:45:23.595Z,94.96
2022-08-03T01:50:30.321Z,99.53
2022-08-03T01:55:35.723Z,100.00
2022-08-03T02:00:41.752Z,99.92
2022-08-03T02:05:46.902Z,99.21
2022-08-03T02:10:51.230Z,97.04
2022-08-03T02:15:56.664Z,100.00
2022-08-03T02:21:01.497Z,100.00
2022-08-03T02:26:18.594Z,100.00
2022-08-03T02:31:25.502Z,100.00
2022-08-03T02:36:31.381Z,100.00
2022-08-03T02:41:38.421Z,100.00
2022-08-03T02:46:48.066Z,100.00
2022-08-03T02:51:54.319Z,100.00
2022-08-03T02:56:59.543Z,100.00
2022-08-03T03:02:04.376Z,100.00
2022-08-03T03:07:07.553Z,99.42
2022-08-03T03:12:14.163Z,100.00
2022-08-03T03:17:20.697Z,100.00
2022-08-03T03:22:25.492Z,100.00
2022-08-03T03:27:28.418Z,100.00
2022-08-03T03:32:34.229Z,100.00
2022-08-03T03:37:37.094Z,100.00
2022-08-03T03:42:39.999Z,100.00
2022-08-03T03:47:45.553Z,100.00
2022-08-03T03:52:48.406Z,100.00
2022-08-03T03:57:51.448Z,100.00
2022-08-03T04:02:55.870Z,100.00
2022-08-03T04:08:18.275Z,100.00
2022-08-03T04:13:22.969Z,100.00
2022-08-03T04:18:29.743Z,100.00
2022-08-03T04:23:36.723Z,100.00
2022-08-03T04:28:42.350Z,100.00
2022-08-03T04:33:47.434Z,100.00
2022-08-03T04:39:01.693Z,100.00
2022-08-03T04:44:06.310Z,100.00
2022-08-03T04:49:11.269Z,100.00
2022-08-03T04:54:17.045Z,100.00
2022-08-03T04:59:19.815Z,100.00
2022-08-03T05:04:24.041Z,100.00
2022-08-03T05:09:49.789Z,100.00
2022-08-03T05:14:49.594Z,100.00
2022-08-03T05:19:53.835Z,100.00
2022-08-03T05:24:56.767Z,100.00
2022-08-03T05:30:31.225Z,100.00
2022-08-03T05:36:01.382Z,99.99
2022-08-03T05:40:56.736Z,98.94
2022-08-03T05:46:01.757Z,95.75
2022-08-03T05:51:16.971Z,93.12
2022-08-03T05:56:23.556Z,91.47
2022-08-03T06:01:26.523Z,89.49
2022-08-03T06:06:32.413Z,85.58
2022-08-03T06:11:35.348Z,84.99
2022-08-03T06:16:38.558Z,83.19
2022-08-03T06:21:42.940Z,80.83
2022-08-03T06:26:48.047Z,78.11
2022-08-03T06:31:51.016Z,78.58
2022-08-03T06:36:59.953Z,74.96
2022-08-03T06:42:04.888Z,74.01
2022-08-03T06:47:08.648Z,74.39
2022-08-03T06:52:12.973Z,73.06
2022-08-03T06:57:37.095Z,71.91
2022-08-03T07:02:40.433Z,70.19
2022-08-03T07:07:44.857Z,68.71
2022-08-03T07:12:55.855Z,66.94
2022-08-03T07:18:00.058Z,65.21
2022-08-03T07:23:04.424Z,65.25
2022-08-03T07:28:08.263Z,63.93
2022-08-03T07:33:11.038Z,62.51
2022-08-03T07:38:16.265Z,62.11
2022-08-03T07:43:19.204Z,60.23
2022-08-03T07:48:22.076Z,59.65
2022-08-03T07:53:27.883Z,59.56
2022-08-03T07:58:30.671Z,57.49
2022-08-03T08:03:52.164Z,57.00
2022-08-03T08:09:01.744Z,56.17
2022-08-03T08:14:05.462Z,55.77
2022-08-03T08:19:08.322Z,54.52
2022-08-03T08:24:18.284Z,52.31
2022-08-03T08:29:24.104Z,52.73
2022-08-03T08:34:26.884Z,52.20
2022-08-03T08:39:31.702Z,50.92
2022-08-03T08:44:38.021Z,50.21
2022-08-03T08:49:53.446Z,49.53
2022-08-03T08:55:08.397Z,47.76
2022-08-03T09:00:14.945Z,47.22
2022-08-03T09:10:49.660Z,47.02
2022-08-03T09:16:11.182Z,44.71
2022-08-03T09:21:31.047Z,45.93
2022-08-03T09:26:38.780Z,44.95
2022-08-03T09:31:45.041Z,44.78
2022-08-03T09:36:50.647Z,44.06
2022-08-03T09:42:09.746Z,44.93
2022-08-03T09:47:14.293Z,43.35
2022-08-03T09:52:31.677Z,43.43
2022-08-03T09:57:48.676Z,43.17
2022-08-03T10:03:05.450Z,41.17
2022-08-03T10:08:16.720Z,41.68
2022-08-03T10:13:22.637Z,41.57
2022-08-03T10:18:26.635Z,40.50
2022-08-03T10:23:33.511Z,40.51
2022-08-03T10:28:45.356Z,40.63
2022-08-03T10:33:53.028Z,41.17
2022-08-03T10:38:57.246Z,40.05
2022-08-03T10:44:06.673Z,40.18
2022-08-03T10:49:13.325Z,40.95
2022-08-03T10:55:03.079Z,37.84
2022-08-03T11:00:10.751Z,39.07
2022-08-03T11:05:26.883Z,38.46
2022-08-03T11:10:32.610Z,38.73
2022-08-03T11:15:38.595Z,38.78
2022-08-03T11:20:52.454Z,37.52
2022-08-03T11:26:15.549Z,37.30
2022-08-03T11:31:50.589Z,37.02
2022-08-03T11:37:22.308Z,38.84
2022-08-03T11:42:45.585Z,36.69
2022-08-03T11:47:54.953Z,37.01
2022-08-03T11:52:57.833Z,36.55
2022-08-03T11:59:12.804Z,36.43
2022-08-03T12:08:52.271Z,34.79
2022-08-03T12:14:30.063Z,34.66
2022-08-03T12:19:19.497Z,32.87
2022-08-03T12:24:22.593Z,31.90
2022-08-03T12:29:25.763Z,32.99
2022-08-03T12:34:49.075Z,31.78
2022-08-03T12:40:00.498Z,32.63
2022-08-03T12:45:23.292Z,33.83
2022-08-03T12:50:32.826Z,32.16
2022-08-03T12:55:57.344Z,30.47
2022-08-03T13:00:59.144Z,31.48
2022-08-03T13:06:03.816Z,30.48
2022-08-03T13:11:52.542Z,28.25
2022-08-03T13:16:47.433Z,27.73
2022-08-03T13:21:53.595Z,26.95
2022-08-03T13:28:12.307Z,26.92
2022-08-03T13:32:30.313Z,27.27
2022-08-03T13:37:34.840Z,25.67
2022-08-03T13:42:38.941Z,25.51
2022-08-03T13:47:42.877Z,26.18
2022-08-03T13:52:47.503Z,26.88
2022-08-03T13:58:18.929Z,28.58
2022-08-03T14:03:14.728Z,28.13
2022-08-03T14:08:44.796Z,25.91
2022-08-03T14:13:47.599Z,24.71
2022-08-03T14:18:50.560Z,25.61
2022-08-03T14:23:55.224Z,24.79
2022-08-03T14:28:58.115Z,23.63
2022-08-03T14:34:01.053Z,24.60
2022-08-03T14:39:05.346Z,23.72
2022-08-03T14:44:08.528Z,25.37
2022-08-03T14:50:31.791Z,27.57
2022-08-03T14:54:35.482Z,23.59
2022-08-03T14:59:56.190Z,21.95
2022-08-03T15:05:00.229Z,23.93
2022-08-03T15:10:04.941Z,20.20
2022-08-03T15:15:09.010Z,22.65
2022-08-03T15:20:22.486Z,21.66
2022-08-03T15:26:31.703Z,20.46
2022-08-03T15:30:52.879Z,19.79
2022-08-03T15:35:56.198Z,19.69
2022-08-03T15:41:00.455Z,20.15
2022-08-03T15:46:28.121Z,18.97
2022-08-03T15:51:25.985Z,19.33
2022-08-03T15:56:31.160Z,19.03
2022-08-03T16:01:34.044Z,19.98
2022-08-03T16:06:37.994Z,18.85
2022-08-03T16:11:44.259Z,18.90
2022-08-03T16:16:47.157Z,20.26
2022-08-03T16:21:50.427Z,19.98
2022-08-03T16:26:54.613Z,20.08
2022-08-03T16:31:57.416Z,20.25
2022-08-03T16:37:07.929Z,20.45
2022-08-03T16:42:24.538Z,19.73
2022-08-03T16:47:27.374Z,20.09
2022-08-03T16:52:30.099Z,19.85
2022-08-03T16:57:59.343Z,20.49
2022-08-03T17:02:58.555Z,23.14
2022-08-03T17:08:04.334Z,22.72
2022-08-03T17:13:21.578Z,24.56
2022-08-03T17:18:29.713Z,27.49
2022-08-03T17:23:42.955Z,27.86
2022-08-03T17:28:57.540Z,30.96
2022-08-03T17:34:04.430Z,31.70
2022-08-03T17:39:09.815Z,31.70
2022-08-03T17:44:35.196Z,33.50
2022-08-03T17:49:41.014Z,34.13
2022-08-03T17:55:56.673Z,35.13
2022-08-03T18:00:42.641Z,35.92
2022-08-03T18:06:11.276Z,37.01
2022-08-03T18:11:14.988Z,37.82
2022-08-03T18:16:26.104Z,38.10
2022-08-03T18:22:02.032Z,39.65
2022-08-03T18:26:55.472Z,39.47
2022-08-03T18:32:03.881Z,40.16
2022-08-03T18:37:08.750Z,40.25
2022-08-03T18:42:19.637Z,40.93
2022-08-03T18:47:50.815Z,41.47
2022-08-03T18:53:03.866Z,41.39
2022-08-03T18:58:33.614Z,42.52
2022-08-03T19:03:41.506Z,43.39
2022-08-03T19:08:48.811Z,44.27
2022-08-03T19:13:53.993Z,44.88
2022-08-03T19:19:00.916Z,45.36
2022-08-03T19:24:10.113Z,45.54
2022-08-03T19:29:15.024Z,46.30
2022-08-03T19:34:21.110Z,46.29
2022-08-03T19:39:27.300Z,46.83
2022-08-03T19:44:33.299Z,47.20
2022-08-03T19:50:04.891Z,47.75
2022-08-03T19:55:05.986Z,48.55
2022-08-03T20:00:12.527Z,48.81
2022-08-03T20:05:19.260Z,49.68
2022-08-03T20:10:22.321Z,49.93
2022-08-03T20:15:31.572Z,49.60
2022-08-03T20:20:37.979Z,50.41
2022-08-03T20:25:48.624Z,50.94
2022-08-03T20:30:59.921Z,51.02
2022-08-03T20:36:04.607Z,52.02
2022-08-03T20:41:07.736Z,51.14
2022-08-03T20:46:31.032Z,53.04
2022-08-03T20:51:50.350Z,53.63
2022-08-03T20:56:56.505Z,53.07
2022-08-03T21:01:59.258Z,54.13
2022-08-03T21:07:14.740Z,54.18
2022-08-03T21:12:31.129Z,55.85
2022-08-03T21:17:40.874Z,57.97
2022-08-03T21:22:49.815Z,57.99
2022-08-03T21:27:52.993Z,61.61
2022-08-03T21:32:57.340Z,60.98
2022-08-03T21:38:15.809Z,62.11
2022-08-03T21:43:19.124Z,61.94
2022-08-03T21:48:25.151Z,61.29
2022-08-03T21:54:00.432Z,62.78
2022-08-03T21:58:55.921Z,65.66
2022-08-03T22:03:58.948Z,65.37
2022-08-03T22:09:04.625Z,64.04
2022-08-03T22:14:07.572Z,65.15
2022-08-03T22:19:10.483Z,66.59
2022-08-03T22:24:17.143Z,66.57
2022-08-03T22:29:20.128Z,67.97
2022-08-03T22:34:26.826Z,66.59
2022-08-03T22:39:32.285Z,69.12
2022-08-03T22:44:36.566Z,71.95
2022-08-03T22:49:40.075Z,73.61
2022-08-03T22:54:44.344Z,71.96
2022-08-03T22:59:47.463Z,70.26
2022-08-03T23:04:53.118Z,69.87
2022-08-03T23:09:57.643Z,71.68
2022-08-03T23:15:03.129Z,71.21
2022-08-03T23:20:09.446Z,74.07
2022-08-03T23:25:13.952Z,77.57
2022-08-03T23:30:17.044Z,77.82
2022-08-03T23:36:28.146Z,78.42
2022-08-03T23:41:05.231Z,77.35
2022-08-03T23:46:10.004Z,78.98
2022-08-03T23:51:25.711Z,80.96
2022-08-03T23:56:42.715Z,79.03
